Time;durP1;ratioP1;P1;durP2;ratioP2;P2;SDS_P1;SDS_P2;PMS_P1;PMS_P2;Temp;Humidity;BMP_temperature;BMP_pressure;BME280_temperature;BME280_humidity;BME280_pressure;Samples;Min_cycle;Max_cycle;Signal;HPM_P1;HPM_P2
2022/10/01 00:04:43;;;;;;;0.87;0.83;;;;;;;18.25;63.19;96459.50;10512726;28;20034;-29
2022/10/01 00:09:43;;;;;;;1.47;0.80;;;;;;;18.27;62.62;96477.25;10512707;28;20765;-29
2022/10/01 00:14:44;;;;;;;1.80;0.70;;;;;;;18.36;63.28;96462.03;10522137;28;20296;-28
2022/10/01 00:19:44;;;;;;;1.30;0.73;;;;;;;18.35;63.12;96467.97;10514391;28;20028;-29
2022/10/01 00:24:46;;;;;;;3.03;0.87;;;;;;;18.32;62.68;96460.38;10507493;28;20036;-29
2022/10/01 00:29:46;;;;;;;2.58;0.70;;;;;;;18.31;62.96;96448.53;10513687;28;20282;-31
2022/10/01 00:34:47;;;;;;;2.57;1.03;;;;;;;18.29;62.85;96445.13;10520505;28;20023;-29
2022/10/01 00:39:48;;;;;;;0.95;0.65;;;;;;;18.27;62.91;96444.31;10515930;28;20031;-29
2022/10/01 00:44:49;;;;;;;2.00;0.80;;;;;;;18.28;62.66;96453.59;10519997;28;20035;-29
2022/10/01 00:49:52;;;;;;;2.15;1.05;;;;;;;18.26;63.08;96465.44;10511509;28;20094;-30
2022/10/01 00:54:57;;;;;;;1.45;0.88;;;;;;;18.26;63.12;96470.50;10513760;28;20488;-30
2022/10/01 01:00:04;;;;;;;2.58;0.80;;;;;;;18.25;62.76;96461.22;10512535;28;20501;-29
2022/10/01 01:05:07;;;;;;;1.10;0.60;;;;;;;18.32;63.13;96475.59;10504650;28;20115;-30
2022/10/01 01:10:08;;;;;;;1.98;0.70;;;;;;;18.32;63.08;96468.81;10510099;28;20021;-29
2022/10/01 01:15:40;;;;;;;1.48;0.75;;;;;;;18.29;62.92;96466.28;10517249;28;20024;-29
2022/10/01 01:21:05;;;;;;;1.15;0.50;;;;;;;18.28;63.16;96463.72;10484342;28;20478;-28
2022/10/01 01:26:23;;;;;;;1.08;0.80;;;;;;;18.27;62.81;96451.91;10512917;28;20120;-30
2022/10/01 01:31:31;;;;;;;1.73;0.60;;;;;;;18.24;62.86;96441.78;10509668;28;20051;-29
2022/10/01 01:36:36;;;;;;;1.42;0.60;;;;;;;18.25;62.91;96436.69;10515031;28;20067;-29
2022/10/01 01:41:47;;;;;;;1.60;0.47;;;;;;;18.23;63.13;96433.34;10510292;28;20051;-29
2022/10/01 01:46:48;;;;;;;1.55;0.70;;;;;;;18.23;62.86;96417.28;10510432;28;20527;-30
2022/10/01 01:52:12;;;;;;;1.70;0.68;;;;;;;18.32;63.15;96404.63;10513537;28;20024;-29
2022/10/01 01:57:14;;;;;;;1.65;0.75;;;;;;;18.31;63.23;96397.84;10517231;28;20123;-29
2022/10/01 02:02:24;;;;;;;0.88;0.60;;;;;;;18.28;63.04;96395.31;10511496;28;20025;-29
2022/10/01 02:07:24;;;;;;;1.25;0.90;;;;;;;18.18;62.98;96378.47;10510374;28;20040;-29
2022/10/01 02:12:36;;;;;;;1.70;0.67;;;;;;;18.25;62.90;96396.16;10510135;28;20032;-29
2022/10/01 02:17:42;;;;;;;1.15;0.70;;;;;;;18.25;63.03;96392.78;10509349;28;20027;-29
2022/10/01 02:22:48;;;;;;;0.70;0.40;;;;;;;18.22;62.88;96380.97;10515286;28;20090;-29
2022/10/01 02:27:59;;;;;;;1.20;0.65;;;;;;;18.20;62.98;96384.34;10510121;28;20039;-29
2022/10/01 02:33:02;;;;;;;0.57;0.40;;;;;;;18.20;62.90;96380.16;10510324;28;20028;-30
2022/10/01 02:38:05;;;;;;;1.00;0.68;;;;;;;18.20;62.94;96372.53;10503618;28;20043;-29
2022/10/01 02:43:19;;;;;;;1.83;0.63;;;;;;;18.29;62.87;96369.09;10521796;28;20033;-29
2022/10/01 02:48:20;;;;;;;1.15;0.60;;;;;;;18.28;62.81;96362.34;10510894;28;20598;-29
2022/10/01 02:53:29;;;;;;;1.63;0.80;;;;;;;18.26;62.81;96364.06;10510266;28;20134;-30
2022/10/01 02:58:30;;;;;;;1.00;0.52;;;;;;;18.23;62.91;96366.59;10508341;28;20039;-29
2022/10/01 03:03:31;;;;;;;2.30;0.50;;;;;;;18.23;62.75;96369.13;10504361;28;20109;-30
2022/10/01 03:08:31;;;;;;;2.63;0.85;;;;;;;18.22;62.85;96354.78;10515447;28;20039;-29
2022/10/01 03:13:32;;;;;;;1.00;0.50;;;;;;;18.22;62.87;96367.44;10510710;28;20028;-29
2022/10/01 03:18:32;;;;;;;0.85;0.70;;;;;;;18.21;63.01;96371.69;10507394;28;20028;-29
2022/10/01 03:23:33;;;;;;;1.17;0.80;;;;;;;18.19;62.79;96363.25;10507335;28;20055;-28
2022/10/01 03:28:33;;;;;;;1.27;0.70;;;;;;;18.28;63.01;96367.44;10509565;28;20087;-29
2022/10/01 03:33:34;;;;;;;1.43;0.67;;;;;;;18.29;63.27;96366.56;10508097;28;20331;-29
2022/10/01 03:38:35;;;;;;;2.65;0.98;;;;;;;18.25;62.99;96372.53;10517095;28;20290;-29
2022/10/01 03:43:35;;;;;;;2.87;0.60;;;;;;;18.23;62.64;96369.13;10524029;28;20531;-29
2022/10/01 03:48:36;;;;;;;1.83;0.97;;;;;;;18.22;62.87;96359.84;10518651;28;20036;-29
2022/10/01 03:53:37;;;;;;;0.55;0.50;;;;;;;18.21;62.78;96360.69;10515350;28;20312;-29
2022/10/01 03:58:37;;;;;;;0.88;0.50;;;;;;;18.20;62.80;96366.63;10516066;28;20031;-29
2022/10/01 04:03:38;;;;;;;0.77;0.50;;;;;;;18.19;62.81;96378.47;10509002;28;20032;-28
2022/10/01 04:08:38;;;;;;;2.03;0.57;;;;;;;18.17;62.77;96375.06;10516439;28;20430;-29
2022/10/01 04:13:38;;;;;;;0.80;0.40;;;;;;;18.20;62.63;96362.41;10514744;28;20111;-29
2022/10/01 04:18:39;;;;;;;1.17;0.57;;;;;;;18.25;63.01;96364.91;10513252;28;20029;-29
2022/10/01 04:23:39;;;;;;;1.57;0.60;;;;;;;18.30;62.58;96363.22;10511824;28;20138;-29
2022/10/01 04:28:40;;;;;;;2.17;0.50;;;;;;;18.27;62.83;96360.69;10513872;28;20025;-29
2022/10/01 04:33:40;;;;;;;2.00;0.70;;;;;;;18.23;62.67;96359.00;10513426;28;20032;-30
2022/10/01 04:38:40;;;;;;;6.33;0.73;;;;;;;18.23;62.77;96359.84;10517056;28;20040;-24
2022/10/01 04:43:41;;;;;;;0.30;0.30;;;;;;;18.24;62.49;96366.59;10520495;28;20868;-29
2022/10/01 04:48:41;;;;;;;2.07;0.60;;;;;;;18.23;62.74;96359.00;10519283;28;20388;-30
2022/10/01 04:53:42;;;;;;;1.08;0.47;;;;;;;18.19;62.60;96358.19;10513062;28;20312;-28
2022/10/01 04:58:42;;;;;;;3.05;0.93;;;;;;;18.19;62.73;96357.34;10512327;28;20114;-29
2022/10/01 05:03:43;;;;;;;1.07;0.67;;;;;;;18.21;62.78;96348.03;10506018;28;20040;-29
2022/10/01 05:08:43;;;;;;;0.93;0.57;;;;;;;18.31;62.21;96347.16;10523753;28;20024;-28
2022/10/01 05:13:43;;;;;;;0.63;0.30;;;;;;;18.29;62.18;96336.16;10511882;28;20032;-29
2022/10/01 05:18:44;;;;;;;0.82;0.50;;;;;;;18.33;62.12;96351.38;10511204;28;20286;-28
2022/10/01 05:23:44;;;;;;;0.30;0.30;;;;;;;18.32;62.11;96349.69;10514564;28;20087;-28
2022/10/01 05:28:45;;;;;;;1.10;0.60;;;;;;;18.30;62.09;96345.47;10512262;28;20025;-29
2022/10/01 05:33:45;;;;;;;0.40;0.40;;;;;;;18.30;60.76;96353.09;10511145;28;20086;-29
2022/10/01 05:38:48;;;;;;;0.60;0.40;;;;;;;18.33;61.27;96361.50;10498017;28;20034;-29
2022/10/01 05:43:50;;;;;;;1.95;0.50;;;;;;;18.34;61.51;96363.19;10499922;28;20480;-30
2022/10/01 05:48:50;;;;;;;0.60;0.45;;;;;;;18.31;61.70;96362.38;10504244;28;20373;-29
2022/10/01 05:53:54;;;;;;;0.93;0.50;;;;;;;18.33;61.55;96350.56;10512386;28;20040;-30
2022/10/01 05:58:54;;;;;;;0.65;0.43;;;;;;;18.43;61.33;96354.72;10510884;28;20024;-29
2022/10/01 06:03:54;;;;;;;0.97;0.50;;;;;;;18.47;61.24;96359.75;10497460;28;20033;-29
2022/10/01 06:08:55;;;;;;;1.27;0.70;;;;;;;18.39;61.49;96345.44;10515875;28;20032;-29
2022/10/01 06:13:55;;;;;;;0.73;0.30;;;;;;;18.42;61.36;96332.75;10508701;28;20344;-29
2022/10/01 06:18:56;;;;;;;0.90;0.60;;;;;;;18.40;61.49;96337.00;10506250;28;20049;-29
2022/10/01 06:23:57;;;;;;;1.70;0.90;;;;;;;18.44;61.47;96361.47;10506487;28;20028;-29
2022/10/01 06:28:57;;;;;;;0.30;0.30;;;;;;;18.41;61.50;96358.97;10507952;28;20485;-31
2022/10/01 06:33:58;;;;;;;0.50;0.50;;;;;;;18.45;61.23;96347.94;10509295;28;20051;-30
2022/10/01 06:38:58;;;;;;;2.97;0.47;;;;;;;18.43;61.39;96347.13;10517192;28;20041;-29
2022/10/01 06:43:59;;;;;;;2.58;0.50;;;;;;;18.46;61.14;96344.56;10514892;28;20485;-29
2022/10/01 06:48:59;;;;;;;4.32;1.00;;;;;;;18.51;61.39;96356.34;10511582;28;20056;-30
2022/10/01 06:53:59;;;;;;;1.48;1.23;;;;;;;18.51;61.34;96345.38;10508764;28;20032;-29
2022/10/01 06:59:00;;;;;;;1.73;0.80;;;;;;;18.41;61.58;96339.50;10511627;28;20040;-29
2022/10/01 07:04:01;;;;;;;0.90;0.50;;;;;;;18.35;61.55;96338.72;10504309;28;20042;-30
2022/10/01 07:09:01;;;;;;;1.92;0.80;;;;;;;18.28;61.60;96324.34;10511529;28;20278;-29
2022/10/01 07:14:01;;;;;;;1.53;0.90;;;;;;;18.23;61.50;96303.25;10527961;28;20028;-29
2022/10/01 07:19:02;;;;;;;2.80;0.97;;;;;;;18.21;61.09;96315.09;10517359;28;20294;-29
2022/10/01 07:24:02;;;;;;;2.87;1.00;;;;;;;18.23;61.00;96304.09;10523917;28;20438;-29
2022/10/01 07:29:03;;;;;;;3.88;1.00;;;;;;;18.30;61.30;96332.81;10517346;28;20538;-30
2022/10/01 07:34:03;;;;;;;5.00;1.00;;;;;;;18.37;61.12;96342.06;10512422;28;20040;-32
2022/10/01 07:39:04;;;;;;;6.37;1.00;;;;;;;18.40;61.34;96331.94;10510779;28;20024;-29
2022/10/01 07:44:04;;;;;;;2.47;1.00;;;;;;;18.41;61.33;96334.44;10512122;28;20495;-29
2022/10/01 07:49:05;;;;;;;2.45;1.02;;;;;;;18.46;60.92;96325.13;10515133;28;20905;-29
2022/10/01 07:54:06;;;;;;;3.03;0.90;;;;;;;18.41;61.43;96334.44;10516478;28;20028;-30
2022/10/01 07:59:08;;;;;;;2.00;1.27;;;;;;;18.38;61.53;96326.00;10521772;28;20479;-29
2022/10/01 08:09:27;;;;;;;7.20;1.00;;;;;;;18.45;61.07;96325.97;10516041;28;20036;-30
2022/10/01 08:14:29;;;;;;;2.97;1.10;;;;;;;18.44;61.22;96334.44;10516158;28;20031;-29
2022/10/01 08:19:29;;;;;;;2.42;0.77;;;;;;;18.41;61.21;96318.41;10518730;28;20036;-30
2022/10/01 08:24:30;;;;;;;5.70;1.40;;;;;;;18.41;61.45;96314.16;10508989;28;20045;-30
2022/10/01 08:29:33;;;;;;;4.53;1.98;;;;;;;18.44;61.29;96311.63;10515436;28;20048;-30
2022/10/01 08:34:34;;;;;;;4.53;1.27;;;;;;;18.46;61.82;96316.66;10520352;28;20036;-30
2022/10/01 08:39:35;;;;;;;5.70;1.55;;;;;;;18.46;61.61;96293.84;10518040;28;20418;-30
2022/10/01 08:44:40;;;;;;;15.35;3.42;;;;;;;18.42;61.38;96299.81;10454679;28;20032;-29
2022/10/01 08:50:19;;;;;;;18.70;1.63;;;;;;;18.43;61.32;96301.50;10471830;28;20385;-29
2022/10/01 08:55:23;;;;;;;4.57;1.38;;;;;;;18.41;61.50;96295.59;10509832;28;20566;-29
2022/10/01 09:00:23;;;;;;;5.78;1.25;;;;;;;18.35;61.53;96288.84;10516514;28;20407;-30
2022/10/01 09:05:46;;;;;;;8.05;1.63;;;;;;;18.37;61.25;96298.97;10507685;28;20055;-29
2022/10/01 09:10:55;;;;;;;5.45;1.60;;;;;;;18.33;61.63;96304.94;10510839;28;20394;-29
2022/10/01 09:16:09;;;;;;;10.23;3.13;;;;;;;18.28;62.31;96302.41;10510700;28;20032;-29
2022/10/01 09:21:33;;;;;;;25.02;2.53;;;;;;;18.30;61.86;96307.47;10513317;28;20036;-29
2022/10/01 09:26:36;;;;;;;10.70;1.63;;;;;;;18.19;60.82;96297.38;10504560;28;20032;-29
2022/10/01 09:31:41;;;;;;;8.60;1.63;;;;;;;18.27;60.78;96289.72;10532497;28;20023;-29
2022/10/01 09:37:13;;;;;;;5.53;1.52;;;;;;;18.27;61.51;96289.72;10516904;28;20036;-29
2022/10/01 09:42:13;;;;;;;13.57;2.08;;;;;;;18.22;61.91;96278.75;10519979;28;20116;-29
2022/10/01 09:47:20;;;;;;;7.45;1.77;;;;;;;18.21;61.80;96279.63;10512324;28;20032;-29
2022/10/01 09:52:33;;;;;;;8.95;1.60;;;;;;;18.20;61.96;96294.00;10510303;28;20116;-30
2022/10/01 09:57:39;;;;;;;5.68;1.27;;;;;;;18.18;61.96;96279.66;10508626;28;20423;-30
2022/10/01 10:02:44;;;;;;;8.37;1.47;;;;;;;18.15;62.06;96283.03;10509241;28;20507;-29
2022/10/01 10:07:56;;;;;;;8.55;1.58;;;;;;;18.12;62.07;96288.13;10510451;28;20037;-30
2022/10/01 10:13:00;;;;;;;6.65;1.70;;;;;;;18.19;62.19;96307.53;10511647;28;20028;-30
2022/10/01 10:18:07;;;;;;;7.45;1.50;;;;;;;18.32;61.87;96310.88;10508615;28;20040;-30
2022/10/01 10:23:15;;;;;;;4.70;1.67;;;;;;;18.30;61.66;96323.53;10514413;28;20135;-29
2022/10/01 10:28:22;;;;;;;6.05;1.73;;;;;;;18.22;61.92;96324.38;10510571;28;20031;-30
2022/10/01 10:33:25;;;;;;;6.57;1.45;;;;;;;18.21;61.91;96343.81;10508898;28;20056;-30
2022/10/01 10:38:32;;;;;;;7.38;1.80;;;;;;;18.17;62.25;96339.59;10513339;28;20079;-29
2022/10/01 10:43:36;;;;;;;5.45;2.13;;;;;;;18.16;62.22;96334.56;10515616;28;20032;-30
2022/10/01 10:48:44;;;;;;;7.72;1.80;;;;;;;18.16;62.29;96344.69;10525087;28;20055;-30
2022/10/01 10:53:45;;;;;;;5.00;1.20;;;;;;;18.17;62.26;96353.97;10516334;28;20093;-31
2022/10/01 10:58:45;;;;;;;5.07;1.65;;;;;;;18.16;62.23;96342.16;10517643;28;20034;-30
2022/10/01 11:03:48;;;;;;;3.87;1.20;;;;;;;18.14;62.24;96336.25;10510003;28;20081;-29
2022/10/01 11:08:59;;;;;;;4.80;1.30;;;;;;;18.26;62.10;96343.78;10525200;28;20031;-30
2022/10/01 11:14:10;;;;;;;5.32;1.90;;;;;;;18.28;62.20;96353.09;10519547;28;20028;-30
2022/10/01 11:19:33;;;;;;;4.40;0.98;;;;;;;18.21;62.06;96343.81;10515256;28;20637;-30
2022/10/01 11:25:03;;;;;;;2.08;1.10;;;;;;;18.22;61.95;96354.78;10511255;28;20508;-30
2022/10/01 11:30:53;;;;;;;5.68;1.20;;;;;;;18.18;62.29;96356.47;10515261;28;20040;-30
2022/10/01 11:36:29;;;;;;;4.93;1.50;;;;;;;18.15;62.21;96366.66;10455194;28;20040;-30
2022/10/01 11:41:38;;;;;;;1.98;1.05;;;;;;;18.16;62.28;96377.63;10520495;28;20101;-29
2022/10/01 11:46:59;;;;;;;5.85;1.20;;;;;;;18.15;62.33;96381.03;10518635;28;20082;-30
2022/10/01 11:52:05;;;;;;;1.60;0.88;;;;;;;18.13;62.34;96382.69;10508653;28;20098;-30
2022/10/01 12:02:53;;;;;;;4.18;1.33;;;;;;;18.27;62.00;96393.63;10515072;28;20148;-30
2022/10/01 12:08:12;;;;;;;2.75;0.93;;;;;;;18.26;61.67;96394.47;10508634;28;20077;-30
2022/10/01 12:13:54;;;;;;;2.95;1.17;;;;;;;18.13;62.08;96372.56;10515328;28;20077;-31
2022/10/01 12:19:08;;;;;;;4.65;1.50;;;;;;;18.16;62.08;96382.69;10520813;28;20063;-29
2022/10/01 12:24:27;;;;;;;2.03;0.85;;;;;;;18.15;62.15;96379.31;10512516;28;20025;-29
2022/10/01 12:29:48;;;;;;;1.73;0.93;;;;;;;18.12;62.17;96376.81;10517778;28;20030;-29
2022/10/01 12:35:20;;;;;;;2.30;0.93;;;;;;;18.06;62.34;96371.75;10515397;28;20078;-30
2022/10/01 12:40:44;;;;;;;1.65;0.98;;;;;;;18.13;62.31;96368.34;10517178;28;20077;-32
2022/10/01 12:46:36;;;;;;;3.25;0.90;;;;;;;18.14;62.02;96369.19;10512513;28;20135;-30
2022/10/01 12:51:38;;;;;;;2.58;0.88;;;;;;;18.08;62.10;96361.63;10464590;28;20550;-31
2022/10/01 12:56:49;;;;;;;2.45;0.90;;;;;;;18.24;61.93;96368.31;10506491;28;20025;-30
2022/10/01 13:02:30;;;;;;;1.42;0.63;;;;;;;18.28;61.77;96369.97;10513461;28;20138;-29
2022/10/01 13:08:14;;;;;;;1.65;0.73;;;;;;;18.19;61.98;96370.00;10507803;28;20071;-29
2022/10/01 13:13:24;;;;;;;0.82;0.65;;;;;;;18.14;61.99;96370.03;10487271;28;20036;-30
2022/10/01 13:18:39;;;;;;;0.90;0.60;;;;;;;18.13;62.15;96377.63;10511301;28;20028;-30
2022/10/01 13:24:09;;;;;;;1.85;0.80;;;;;;;18.11;62.18;96394.53;10508846;28;20445;-30
2022/10/01 13:29:47;;;;;;;1.27;0.73;;;;;;;18.13;62.23;96413.09;10480090;28;20040;-30
2022/10/01 13:34:48;;;;;;;2.05;0.88;;;;;;;18.09;62.20;96416.50;10509850;28;20448;-30
2022/10/01 13:39:48;;;;;;;3.07;0.90;;;;;;;18.10;62.26;96429.16;10518666;28;20063;-29
2022/10/01 13:44:57;;;;;;;2.40;0.70;;;;;;;18.07;62.20;96423.28;10508423;28;20298;-29
2022/10/01 13:50:02;;;;;;;1.98;0.80;;;;;;;18.20;61.93;96437.56;10515076;28;20344;-30
2022/10/01 13:55:03;;;;;;;3.08;0.90;;;;;;;18.25;61.83;96456.16;10510289;28;20054;-30
2022/10/01 14:00:16;;;;;;;1.45;0.82;;;;;;;18.23;61.88;96490.75;10504561;28;20040;-29
2022/10/01 14:05:16;;;;;;;1.42;0.68;;;;;;;18.14;62.07;96470.50;10503277;28;20036;-30
2022/10/01 14:10:17;;;;;;;1.00;0.70;;;;;;;18.12;62.04;96478.13;10508723;28;20024;-30
2022/10/01 14:21:03;;;;;;;1.05;0.77;;;;;;;18.09;62.03;96482.38;10442580;28;20495;-30
2022/10/01 14:26:36;;;;;;;1.63;0.70;;;;;;;18.06;62.24;96480.69;10507428;28;21065;-31
2022/10/01 14:31:46;;;;;;;1.63;0.82;;;;;;;18.08;62.05;96481.50;10487722;28;20491;-29
2022/10/01 14:36:48;;;;;;;0.75;0.60;;;;;;;18.05;62.13;96489.13;10511566;28;20085;-30
2022/10/01 14:41:51;;;;;;;1.95;1.00;;;;;;;18.05;62.21;96495.88;10506826;28;20107;-30
2022/10/01 14:46:54;;;;;;;1.02;0.70;;;;;;;18.17;61.91;96490.78;10508508;28;20027;-30
2022/10/01 14:52:02;;;;;;;1.83;0.50;;;;;;;18.22;61.63;96504.28;10509007;28;20426;-31
2022/10/01 14:57:10;;;;;;;1.40;0.60;;;;;;;18.14;61.84;96495.84;10502636;28;20043;-29
2022/10/01 15:02:19;;;;;;;1.38;0.77;;;;;;;18.11;61.96;96488.28;10510707;28;20047;-30
2022/10/01 15:07:20;;;;;;;1.50;0.73;;;;;;;18.07;62.05;96487.44;10505508;28;20028;-30
2022/10/01 15:12:22;;;;;;;0.75;0.47;;;;;;;18.08;61.92;96480.69;10506680;28;20406;-30
2022/10/01 15:17:25;;;;;;;1.48;0.70;;;;;;;18.06;62.16;96482.34;10504593;28;20111;-31
2022/10/01 15:22:28;;;;;;;0.70;0.50;;;;;;;18.04;62.06;96492.50;10516543;28;20539;-30
2022/10/01 15:27:29;;;;;;;1.23;0.60;;;;;;;18.05;62.07;96485.72;10503713;28;20363;-30
2022/10/01 15:32:30;;;;;;;1.50;0.60;;;;;;;18.02;62.08;96491.69;10518638;28;20033;-31
2022/10/01 15:37:34;;;;;;;1.20;0.52;;;;;;;18.03;62.01;96503.50;10518694;28;20493;-29
2022/10/01 15:42:35;;;;;;;1.08;0.50;;;;;;;18.18;61.78;96502.63;10509728;28;20545;-30
2022/10/01 15:47:37;;;;;;;0.77;0.40;;;;;;;18.15;61.51;96500.09;10520989;28;20479;-30
2022/10/01 15:52:50;;;;;;;1.63;0.73;;;;;;;18.14;61.77;96528.78;10515726;28;20039;-30
2022/10/01 15:58:05;;;;;;;1.48;0.40;;;;;;;18.09;61.86;96517.84;10511980;28;20028;-29
2022/10/01 16:03:17;;;;;;;0.85;0.50;;;;;;;18.05;62.03;96527.13;10516297;28;20033;-30
2022/10/01 16:08:23;;;;;;;0.43;0.38;;;;;;;18.07;61.85;96519.53;10512095;28;20040;-29
2022/10/01 16:13:27;;;;;;;0.67;0.40;;;;;;;18.06;61.94;96543.16;10517044;28;20625;-29
2022/10/01 16:18:31;;;;;;;0.75;0.35;;;;;;;18.04;62.02;96524.59;10513441;28;20036;-30
2022/10/01 16:23:42;;;;;;;1.10;0.47;;;;;;;18.03;62.02;96515.31;10516815;28;20070;-29
2022/10/01 16:28:42;;;;;;;0.52;0.30;;;;;;;18.04;61.88;96524.59;10514207;28;20505;-29
2022/10/01 16:33:45;;;;;;;1.45;0.77;;;;;;;18.02;61.78;96551.63;10515225;28;20028;-30
2022/10/01 16:38:47;;;;;;;0.80;0.50;;;;;;;18.12;61.64;96553.28;10516516;28;20024;-29
2022/10/01 16:43:52;;;;;;;0.70;0.68;;;;;;;18.19;61.38;96555.81;10509660;28;20028;-29
2022/10/01 16:48:52;;;;;;;1.83;0.50;;;;;;;18.14;61.54;96564.25;10514458;28;20031;-30
2022/10/01 16:53:53;;;;;;;0.57;0.50;;;;;;;18.08;61.82;96572.72;10515147;28;20077;-30
2022/10/01 16:58:54;;;;;;;0.40;0.35;;;;;;;18.05;61.83;96572.72;10512982;28;20787;-30
2022/10/01 17:03:54;;;;;;;0.53;0.40;;;;;;;18.05;61.80;96582.00;10522048;28;20033;-29
2022/10/01 17:08:54;;;;;;;0.93;0.40;;;;;;;18.02;62.00;96587.94;10519015;28;20300;-29
2022/10/01 17:13:55;;;;;;;0.67;0.60;;;;;;;18.03;61.91;96598.91;10504628;28;20052;-29
2022/10/01 17:18:55;;;;;;;0.52;0.40;;;;;;;18.01;61.96;96613.25;10522619;28;20494;-30
2022/10/01 17:23:56;;;;;;;1.10;0.43;;;;;;;18.00;62.03;96619.16;10508690;28;20085;-29
2022/10/01 17:28:56;;;;;;;0.87;0.40;;;;;;;17.99;61.95;96622.56;10511965;28;20407;-29
2022/10/01 17:33:58;;;;;;;0.70;0.52;;;;;;;18.12;61.65;96634.34;10512368;28;20037;-29
2022/10/01 17:39:00;;;;;;;0.80;0.40;;;;;;;18.18;61.54;96649.56;10512288;28;20032;-30
2022/10/01 17:44:00;;;;;;;3.80;0.75;;;;;;;18.02;61.49;96655.47;10508273;28;20039;-31
2022/10/01 17:49:00;;;;;;;1.57;0.37;;;;;;;18.05;61.77;96684.19;10512891;28;20488;-30
2022/10/01 17:54:02;;;;;;;0.52;0.43;;;;;;;18.01;61.63;96679.13;10516439;28;20282;-30
2022/10/01 17:59:02;;;;;;;0.73;0.40;;;;;;;18.06;61.82;96710.34;10504238;28;20514;-29
2022/10/01 18:04:04;;;;;;;1.70;1.50;;;;;;;18.04;61.75;96712.91;10504076;28;20035;-30
2022/10/01 18:09:05;;;;;;;0.55;0.40;;;;;;;18.02;61.95;96726.41;10515329;28;20035;-31
2022/10/01 18:14:06;;;;;;;0.80;0.47;;;;;;;17.99;61.77;96718.81;10508540;28;20058;-30
2022/10/01 18:19:08;;;;;;;0.30;0.30;;;;;;;17.96;62.04;96731.44;10508955;28;20395;-30
2022/10/01 18:24:08;;;;;;;0.60;0.40;;;;;;;17.96;61.83;96733.97;10506881;28;20086;-28
2022/10/01 18:29:16;;;;;;;0.50;0.43;;;;;;;18.00;61.92;96725.56;10510006;28;20770;-30
2022/10/01 18:34:34;;;;;;;0.90;0.45;;;;;;;18.09;61.48;96728.09;10511098;28;20030;-29
2022/10/01 18:39:51;;;;;;;0.20;0.20;;;;;;;18.14;61.42;96746.69;10508549;28;20387;-29
2022/10/01 18:44:55;;;;;;;0.77;0.50;;;;;;;18.06;61.55;96750.88;10502653;28;20074;-29
2022/10/01 18:50:06;;;;;;;0.65;0.35;;;;;;;18.03;61.61;96761.03;10508558;28;20062;-30
2022/10/01 18:55:42;;;;;;;0.80;0.35;;;;;;;18.02;61.74;96772.00;10508685;28;20025;-30
2022/10/01 19:00:58;;;;;;;0.50;0.32;;;;;;;18.02;61.74;96785.53;10509940;28;20055;-29
2022/10/01 19:06:12;;;;;;;0.33;0.33;;;;;;;18.00;61.69;96793.97;10514082;28;20519;-29
2022/10/01 19:11:31;;;;;;;0.43;0.43;;;;;;;17.95;61.67;96793.09;10516030;28;20072;-29
2022/10/01 19:16:56;;;;;;;0.50;0.20;;;;;;;17.98;61.76;96808.31;10517146;28;20036;-30
2022/10/01 19:22:09;;;;;;;0.70;0.50;;;;;;;17.96;61.79;96826.03;10520483;28;20648;-29
2022/10/01 19:27:19;;;;;;;1.08;0.50;;;;;;;18.01;61.67;96826.03;10510407;28;20380;-29
2022/10/01 19:32:48;;;;;;;0.52;0.30;;;;;;;18.12;61.47;96842.97;10522405;28;20042;-30
2022/10/01 19:38:10;;;;;;;0.50;0.45;;;;;;;18.14;61.31;96845.50;10516328;28;20027;-29
2022/10/01 19:43:32;;;;;;;1.00;0.40;;;;;;;18.03;61.65;96852.22;10510464;28;20036;-30
2022/10/01 19:49:03;;;;;;;0.50;0.40;;;;;;;18.03;61.63;96860.69;10520087;28;20449;-30
2022/10/01 19:54:12;;;;;;;0.55;0.40;;;;;;;18.02;61.72;96875.88;10515959;28;20081;-29
2022/10/01 19:59:18;;;;;;;0.65;0.40;;;;;;;17.99;61.87;96875.88;10510875;28;20842;-29
2022/10/01 20:04:33;;;;;;;1.02;0.55;;;;;;;17.98;61.74;96884.31;10515461;28;20127;-30
2022/10/01 20:09:43;;;;;;;0.40;0.32;;;;;;;17.97;61.69;96892.72;10514186;28;20032;-29
2022/10/01 20:15:18;;;;;;;0.22;0.20;;;;;;;17.97;61.62;96892.72;10513717;28;20077;-29
2022/10/01 20:20:38;;;;;;;0.47;0.30;;;;;;;17.93;61.35;96893.56;10511400;28;20136;-30
2022/10/01 20:25:46;;;;;;;0.47;0.40;;;;;;;18.00;61.66;96902.88;10515273;28;20032;-29
2022/10/01 20:31:00;;;;;;;0.30;0.30;;;;;;;18.10;61.49;96909.69;10513396;28;20404;-29
2022/10/01 20:36:16;;;;;;;0.63;0.45;;;;;;;18.13;61.14;96910.53;10513941;28;20044;-29
2022/10/01 20:41:20;;;;;;;0.43;0.30;;;;;;;18.02;61.63;96907.13;10516105;28;21123;-29
2022/10/01 20:46:31;;;;;;;0.43;0.32;;;;;;;18.00;61.60;96913.84;10513185;28;20094;-30
2022/10/01 20:51:44;;;;;;;0.50;0.20;;;;;;;17.98;61.65;96905.41;10519086;28;20032;-29
2022/10/01 20:57:00;;;;;;;0.40;0.30;;;;;;;17.99;61.73;96908.78;10516735;28;20977;-30
2022/10/01 21:02:13;;;;;;;0.83;0.80;;;;;;;17.95;61.72;96905.41;10513855;28;20101;-29
2022/10/01 21:07:39;;;;;;;0.40;0.10;;;;;;;17.95;61.78;96914.66;10512703;28;20036;-29
2022/10/01 21:12:45;;;;;;;0.35;0.20;;;;;;;17.95;61.75;96940.00;10506854;28;20039;-30
2022/10/01 21:17:55;;;;;;;1.75;0.57;;;;;;;17.93;61.77;96949.28;10509857;28;20039;-30
2022/10/01 21:23:24;;;;;;;0.47;0.40;;;;;;;17.94;61.70;96961.09;10508059;28;20135;-29
2022/10/01 21:28:43;;;;;;;0.43;0.30;;;;;;;18.08;61.21;96965.41;10508601;28;20590;-29
2022/10/01 21:33:51;;;;;;;0.25;0.20;;;;;;;18.08;61.11;96974.72;10513515;28;20040;-30
2022/10/01 21:39:02;;;;;;;0.30;0.30;;;;;;;17.95;61.60;96962.81;10510897;28;20040;-29
2022/10/01 21:44:06;;;;;;;0.22;0.20;;;;;;;18.01;61.59;96967.91;10508637;28;20285;-30
2022/10/01 21:49:12;;;;;;;0.20;0.20;;;;;;;17.92;61.43;96955.19;10515411;28;20029;-29
2022/10/01 21:54:43;;;;;;;0.47;0.27;;;;;;;17.96;61.57;96977.16;10516191;28;20028;-29
2022/10/01 22:00:10;;;;;;;0.20;0.20;;;;;;;17.95;61.68;96995.72;10504631;28;20036;-31
2022/10/01 22:05:10;;;;;;;;;;;;;;;17.94;61.54;96994.03;10513992;28;20036;-29
2022/10/01 22:10:27;;;;;;;0.55;0.20;;;;;;;17.90;61.70;96992.34;10513294;28;20392;-30
2022/10/01 22:15:38;;;;;;;0.32;0.30;;;;;;;17.92;61.87;96990.66;10509511;28;20040;-30
2022/10/01 22:20:41;;;;;;;0.20;0.20;;;;;;;17.89;61.71;97001.59;10515814;28;20052;-29
2022/10/01 22:26:02;;;;;;;0.28;0.25;;;;;;;18.02;61.38;96994.94;10509850;28;20040;-30
2022/10/01 22:31:07;;;;;;;0.40;0.25;;;;;;;18.07;61.20;97005.97;10510415;28;20403;-29
2022/10/01 22:36:13;;;;;;;0.47;0.30;;;;;;;17.98;61.65;97018.56;10512436;28;20035;-30
2022/10/01 22:41:32;;;;;;;0.43;0.20;;;;;;;17.94;61.49;97014.31;10509002;28;20071;-29
2022/10/01 22:46:53;;;;;;;0.20;0.15;;;;;;;17.93;61.82;97015.97;10509951;28;20036;-29
2022/10/01 22:52:23;;;;;;;0.40;0.30;;;;;;;17.94;61.65;97027.84;10507174;28;20028;-30
2022/10/01 22:57:55;;;;;;;0.17;0.17;;;;;;;17.94;61.58;97037.09;10502240;28;20031;-29
2022/10/01 23:03:28;;;;;;;0.30;0.30;;;;;;;17.91;61.59;97045.53;10512961;28;20490;-29
2022/10/01 23:08:45;;;;;;;0.55;0.20;;;;;;;17.91;61.65;97050.59;10512636;28;20033;-30
2022/10/01 23:13:52;;;;;;;0.60;0.37;;;;;;;17.92;61.67;97051.44;10501623;28;20032;-30
2022/10/01 23:19:00;;;;;;;0.28;0.25;;;;;;;17.86;61.70;97032.00;10514218;28;20078;-30
2022/10/01 23:24:12;;;;;;;0.40;0.20;;;;;;;18.04;61.22;97049.00;10509572;28;20094;-29
2022/10/01 23:29:19;;;;;;;0.30;0.20;;;;;;;18.07;61.14;97051.56;10509964;28;20039;-29
2022/10/01 23:34:22;;;;;;;0.13;0.13;;;;;;;17.98;61.29;97044.72;10509766;28;20035;-30
2022/10/01 23:39:42;;;;;;;0.22;0.20;;;;;;;17.96;61.44;97059.09;10510575;28;20036;-29
2022/10/01 23:44:56;;;;;;;0.63;0.30;;;;;;;17.94;61.46;97055.69;10506332;28;20040;-29
2022/10/01 23:49:59;;;;;;;0.10;0.10;;;;;;;17.93;61.50;97063.28;10508008;28;20031;-29
